Aeroporto :
LOGIN :

Iscrizione | Disclaimer

   EN    FR    IT 

 










Sommario :    VFR   VFR Marginale   IFR   IFR Intensivo   IFR Molto Intensivo
Visibilità : 
Base nubi : 
>= 8 km
>= 3000ft
5 / 8 km
1000 / 3000 ft
1500m / 5 km
500 / 1000 ft
800 / 1500m
200 / 500 ft
< 800m
< 200 ft
Simboli :   Temporali  Nebbia  Neve Forte  Precipitazioni Forti  Vento > 20 kt
SIGMETs :   Varie  Temporali  Ghiacco  Turbolenza  Onda orograficha  Ceneri Vulcaniche






- Altitudine del aeroporto : 7 ft
- Codice IATA : POW


LJPZ - Portoroz

ULTIMO METAR :
  • 252000Z VRB02KT 9999 VCTS -SHRA FEW035CB BKN043 OVC095 15/13 Q0992

METARs OBSOLETI :
  • 251930Z 12005KT 090V160 9999 VCTS FEW035CB BKN043 OVC095 15/13 Q0992
  • 251900Z 11008KT 9999 -SHRA FEW035TCU BKN043 OVC095 15/13 Q0991
  • 251830Z 11011KT 9999 -SHRA FEW035TCU BKN043 OVC085 15/13 Q0992 RETSRA
  • 251800Z 11013KT 5000 TSRA BR FEW035CB BKN043 OVC085 15/13 Q0992
  • 251730Z 16008KT 120V200 9999 -SHRA FEW035TCU SCT047 BKN085 18/13 Q0992

TAF TAF LJPZ
Valido dal 25 a 21 ore il 26 a 06 ore UTC


252000Z 2521/2606 12007KT 9999 SCT030 BKN045
TEMPO 2521/2606 SHRA SCT030TCU BKN050
PROB40
TEMPO 2521/2606 TSRA SCT030CB BKN040
BECMG 2602/2603 05013G25KT



MetMap, La meteo Aeronautica in un colpo d'occhio ! - Copyright ORBIFLY Dicembre 2007 - Disclaimer

ORBIFLY MET'MAP TEAM :

Programmazione e sviluppo : Alexandra Zaïnal
Concezione : Baudouin d'Aumeries
Aiuto per la programmazione : Marc-Olivier Méhu
Supporto tecnico e logistico : Manuel Goepfert
Aiuto per la traduzione : Arnaldo La Scala

Contatto : metmap@orbifly.com




FONTI E CREDITI :

   NOAA